»·PEaware :: PIN8486 EDDF-RJAA

PIN8486 :: EDDF-RJAA

FLIGHT INFORMATION

Flight Status: Arrived
Operator: Unknown
More flights by this operator :: More flights under this callsign
Pilot: Stacy K. (11621)
Aircraft: AIRBUS A380-800
(A388)
More flights by this aircraft type
Origin: EDDF Frankfurt/Main
Germany
Destination: RJAA New Tokyo Intl (Narita)
Japan
More flights between these airports :: More routes between these airports
Route: TOBA9D TOBAK N858 ERSIL BINKA/K0915F330 KUNER B810 RONUN/N0493F330 L134 GARSO SOKVA Y119 PIVUN P862 EKLON Y169 TUKMA/N0495F320 L738 MEGAS/K0913F330 P989 NASBI G722 ARKUK B152 RIMAG L168 KUSET/K0922F350 L168 LEBNA A946 TORMA N992 HAB L168 IGROD/N0500F350 B451 KADBO R211 GTC Y303 KAMOH Y301 SHELY Y30 SWAMP SWAMSA
File this flight plan on PilotEdge
Remarks: PBN / A1B1C1D1L1O1S1S2 DOF / 180507 REG / N10145PN EET / EDUU0008 EPWW0042 UMKK0103 EYVL0108 EVRR0112 EETT0133 ULLL0147 ULAA0229 UUYY0318 USDK0410 UNKL0447 UERR0610 UEEE0648 UELL0707 UHHH0740 RJJJ0942 SEL / DEFK OPR / PIN RMK / TCAS SIMBRIEF
Altitude:
(Current/Filed)
33,000ft
Speed:
(Current/Filed)
493kts
Departed: 07-May-18 09:48 AM
Arrived: 07-May-18 08:39 PM
Distance/Time
Traveled:
5054nm/10:51
Distance/Time
To Go:
Arrived

Flight Plot

Page will automatically refresh every two minutes.

Flight plan parsing failed; only flown route is shown


Map Options




Map Legend


Flown Route
Filed Route
Departure Airport
Arrival Airport
Navaid (VOR, NDB)
Fix

Horizontal Profiles

Position Reports

Time Latitude Longitude Heading Altitude Ground
Speed
07-May-18 09:00 50.046968 8.572999 288 382ft 0kts
07-May-18 09:01 50.046968 8.572999 288 382ft 0kts
07-May-18 09:02 50.046968 8.572999 288 382ft 0kts
07-May-18 09:03 50.046968 8.572999 288 382ft 0kts
07-May-18 09:05 50.046968 8.572999 288 382ft 0kts
07-May-18 09:06 50.046968 8.572999 288 382ft 0kts
07-May-18 09:07 50.046968 8.572999 288 382ft 0kts
07-May-18 09:08 50.046968 8.572999 288 382ft 0kts
07-May-18 09:09 50.046968 8.572999 288 382ft 0kts
07-May-18 09:10 50.046968 8.572999 288 382ft 0kts
07-May-18 09:11 50.046968 8.572999 288 382ft 0kts
07-May-18 09:12 50.046968 8.572999 288 382ft 0kts
07-May-18 09:13 50.046968 8.572999 288 382ft 0kts
07-May-18 09:14 50.046968 8.572999 288 382ft 0kts
07-May-18 09:15 50.046968 8.572999 288 382ft 0kts
07-May-18 09:16 50.046968 8.572999 288 382ft 0kts
07-May-18 09:17 50.046968 8.572999 288 382ft 0kts
07-May-18 09:18 50.046968 8.572999 288 382ft 0kts
07-May-18 09:19 50.046968 8.572999 288 382ft 0kts
07-May-18 09:20 50.046968 8.572999 288 382ft 0kts
07-May-18 09:21 50.046968 8.572999 288 382ft 0kts
07-May-18 09:22 50.046968 8.572999 288 382ft 0kts
07-May-18 09:23 50.046968 8.572999 288 382ft 0kts
07-May-18 09:24 50.046968 8.572999 288 382ft 0kts
07-May-18 09:25 50.046968 8.572999 288 382ft 0kts
07-May-18 09:26 50.046968 8.572999 288 382ft 0kts
07-May-18 09:27 50.046968 8.572999 288 382ft 0kts
07-May-18 09:28 50.046968 8.572999 288 382ft 0kts
07-May-18 09:29 50.046968 8.572999 288 382ft 0kts
07-May-18 09:30 50.046968 8.572999 288 382ft 0kts
07-May-18 09:31 50.046968 8.572999 288 382ft 0kts
07-May-18 09:32 50.046968 8.572999 288 382ft 0kts
07-May-18 09:33 50.046933 8.573172 286 382ft 2kts
07-May-18 09:34 50.046863 8.573903 234 382ft 2kts
07-May-18 09:35 50.047237 8.574303 213 382ft 0kts
07-May-18 09:36 50.047237 8.574303 213 382ft 0kts
07-May-18 09:37 50.047155 8.574245 203 382ft 3kts
07-May-18 09:38 50.044702 8.575512 192 382ft 9kts
07-May-18 09:39 50.043113 8.570347 249 382ft 17kts
07-May-18 09:40 50.041287 8.562717 249 382ft 19kts
07-May-18 09:41 50.039405 8.554965 250 382ft 19kts
07-May-18 09:42 50.037528 8.547115 249 382ft 19kts
07-May-18 09:43 50.035622 8.539191 248 382ft 19kts
07-May-18 09:44 50.033758 8.531389 249 382ft 18kts
07-May-18 09:45 50.031287 8.528144 181 382ft 15kts
07-May-18 09:46 50.028864 8.531285 108 382ft 19kts
07-May-18 09:47 50.027829 8.534242 106 382ft 13kts
07-May-18 09:48 50.034314 8.562583 70 403ft 167kts
07-May-18 09:49 50.054031 8.639555 68 2671ft 199kts
07-May-18 09:50 50.088597 8.715687 34 4016ft 245kts
07-May-18 09:51 50.152952 8.764495 26 6071ft 263kts
07-May-18 09:52 50.221795 8.811758 28 8065ft 276kts
07-May-18 09:53 50.298362 8.837787 2 9957ft 295kts
07-May-18 09:54 50.384294 8.825393 355 11178ft 332kts
07-May-18 09:55 50.477336 8.805780 355 13062ft 341kts
07-May-18 09:56 50.565147 8.838272 40 14873ft 331kts
07-May-18 09:57 50.624490 8.948748 59 16607ft 333kts
07-May-18 09:58 50.672019 9.075883 62 18235ft 340kts
07-May-18 09:59 50.717760 9.208118 64 19766ft 346kts
07-May-18 10:00 50.761386 9.345803 65 21128ft 355kts
07-May-18 10:01 50.805600 9.487113 65 22402ft 363kts
07-May-18 10:02 50.850461 9.631349 65 23664ft 368kts
07-May-18 10:03 50.895699 9.778465 65 24794ft 374kts
07-May-18 10:04 50.941320 9.927578 65 25971ft 379kts
07-May-18 10:05 50.987402 10.078990 65 27108ft 384kts
07-May-18 10:06 51.034152 10.233420 65 28254ft 388kts
07-May-18 10:07 51.105771 10.363454 43 29228ft 401kts
07-May-18 10:08 51.191335 10.478459 43 30256ft 405kts
07-May-18 10:09 51.277670 10.596206 43 31144ft 411kts
07-May-18 10:10 51.364955 10.716256 43 31999ft 417kts
07-May-18 10:11 51.453213 10.838379 43 32771ft 422kts
07-May-18 10:12 51.542929 10.963125 43 33151ft 435kts
07-May-18 10:13 51.636948 11.094280 43 33152ft 456kts
07-May-18 10:14 51.734386 11.230920 43 33151ft 469kts
07-May-18 10:15 51.832243 11.368947 43 33150ft 467kts
07-May-18 10:16 51.928912 11.506169 43 33150ft 467kts
07-May-18 10:17 52.026465 11.645575 43 33149ft 467kts
07-May-18 10:18 52.124106 11.786021 43 33149ft 469kts
07-May-18 10:19 52.221522 11.927182 43 33154ft 469kts
07-May-18 10:20 52.319102 12.069324 43 33158ft 469kts
07-May-18 10:21 52.416193 12.211623 43 33166ft 469kts
07-May-18 10:22 52.513271 12.354646 43 33170ft 470kts
07-May-18 10:23 52.610686 12.498669 43 33179ft 472kts
07-May-18 10:24 52.708083 12.643552 43 33186ft 472kts
07-May-18 10:25 52.805719 12.789932 43 33189ft 473kts
07-May-18 10:26 52.903004 12.936726 43 33205ft 473kts
07-May-18 10:27 53.000174 13.084365 43 33211ft 474kts
07-May-18 10:28 53.097193 13.232895 43 33203ft 475kts
07-May-18 10:29 53.194150 13.382350 43 33206ft 475kts
07-May-18 10:30 53.290972 13.532984 43 33219ft 477kts
07-May-18 10:31 53.388033 13.685460 43 33242ft 478kts
07-May-18 10:32 53.484915 13.838710 43 33239ft 479kts
07-May-18 10:33 53.582118 13.992337 43 33251ft 480kts
07-May-18 10:34 53.679170 14.146862 43 33267ft 480kts
07-May-18 10:35 53.772765 14.307799 52 33281ft 481kts
07-May-18 10:36 53.847239 14.495217 56 33276ft 480kts
07-May-18 10:37 53.919270 14.685292 57 33280ft 478kts
07-May-18 10:38 53.990962 14.875243 56 33222ft 477kts
07-May-18 10:39 54.063448 15.065985 56 33226ft 485kts
07-May-18 10:40 54.136708 15.259135 56 33230ft 482kts
07-May-18 10:41 54.208555 15.451425 56 33232ft 481kts
07-May-18 10:42 54.280228 15.645173 56 33236ft 480kts
07-May-18 10:43 54.351180 15.838607 57 33233ft 480kts
07-May-18 10:44 54.421741 16.032441 57 33234ft 479kts
07-May-18 10:45 54.492167 16.226793 57 33234ft 480kts
07-May-18 10:46 54.562555 16.422318 57 33245ft 481kts
07-May-18 10:47 54.633127 16.619851 57 33248ft 483kts
07-May-18 10:48 54.703305 16.817798 57 33249ft 483kts
07-May-18 10:49 54.773116 17.016830 57 33247ft 484kts
07-May-18 10:50 54.842761 17.216692 57 33249ft 484kts
07-May-18 10:51 54.911909 17.417244 57 33249ft 485kts
07-May-18 10:52 54.980825 17.618831 57 33250ft 485kts
07-May-18 10:53 55.049574 17.821595 57 33250ft 487kts
07-May-18 10:54 55.118344 18.025439 57 33251ft 488kts
07-May-18 10:55 55.186740 18.229874 57 33250ft 487kts
07-May-18 10:56 55.255358 18.434566 53 33250ft 486kts
07-May-18 10:57 55.345740 18.609519 43 33258ft 484kts
07-May-18 10:58 55.440753 18.777028 43 33258ft 483kts
07-May-18 10:59 55.534880 18.946047 43 33257ft 484kts
07-May-18 11:00 55.628809 19.116283 43 33257ft 484kts
07-May-18 11:01 55.722680 19.287598 43 33257ft 485kts
07-May-18 11:02 55.816352 19.460160 43 33257ft 486kts
07-May-18 11:03 55.910286 19.634863 43 33257ft 487kts
07-May-18 11:03 55.988031 19.780669 43 33257ft 488kts
07-May-18 11:05 56.097255 19.987341 44 33258ft 489kts
07-May-18 11:06 56.187358 20.170041 48 33259ft 491kts
07-May-18 11:06 56.258855 20.329693 48 33258ft 492kts
07-May-18 11:07 56.344492 20.521937 48 33259ft 492kts
07-May-18 11:08 56.430182 20.715177 48 33259ft 493kts
07-May-18 11:09 56.515670 20.909527 48 33260ft 494kts
07-May-18 11:10 56.600978 21.104950 48 33260ft 494kts
07-May-18 11:11 56.685761 21.301319 48 33260ft 494kts
07-May-18 11:12 56.770231 21.498591 48 33259ft 494kts
07-May-18 11:13 56.854638 21.696873 49 33260ft 494kts
07-May-18 11:14 56.938798 21.896313 49 33260ft 496kts
07-May-18 11:15 57.022938 22.097135 49 33260ft 496kts
07-May-18 11:16 57.106738 22.298860 49 33260ft 498kts
07-May-18 11:17 57.190482 22.502175 49 33254ft 498kts
07-May-18 11:19 57.273905 22.707009 49 33245ft 499kts
07-May-18 11:20 57.357186 22.912718 49 33243ft 500kts
07-May-18 11:21 57.440043 23.119819 50 33245ft 500kts
07-May-18 11:22 57.522845 23.328006 49 33244ft 501kts
07-May-18 11:23 57.605641 23.537771 50 33242ft 504kts
07-May-18 11:24 57.688463 23.749195 50 33241ft 505kts
07-May-18 11:25 57.771133 23.962394 50 33241ft 507kts
07-May-18 11:26 57.853629 24.177070 50 33237ft 507kts
07-May-18 11:27 57.946646 24.371168 33 33233ft 496kts
07-May-18 11:28 58.058931 24.521355 30 33223ft 495kts
07-May-18 11:29 58.171413 24.672254 30 33221ft 496kts
07-May-18 11:30 58.283544 24.824830 31 33217ft 496kts
07-May-18 11:31 58.367933 25.034446 61 33206ft 517kts
07-May-18 11:32 58.422115 25.288406 65 33200ft 517kts
07-May-18 11:33 58.473965 25.544962 65 33200ft 517kts
07-May-18 11:34 58.523363 25.803136 68 33200ft 518kts
07-May-18 11:35 58.566957 26.065963 69 33199ft 518kts
07-May-18 11:36 58.609543 26.329724 69 33200ft 519kts
07-May-18 11:37 58.651979 26.595125 69 33200ft 520kts
07-May-18 11:38 58.694139 26.860803 69 33198ft 517kts
07-May-18 11:39 58.736129 27.125014 66 33193ft 514kts
07-May-18 11:40 58.795284 27.374555 62 33191ft 512kts
07-May-18 11:41 58.847472 27.631591 66 33187ft 514kts
07-May-18 11:42 58.895970 27.891670 66 33184ft 515kts
07-May-18 11:43 58.943779 28.153122 67 33180ft 516kts
07-May-18 11:44 58.991067 28.415914 67 33175ft 516kts
07-May-18 11:45 59.037781 28.679541 67 33159ft 517kts
07-May-18 11:46 59.084120 28.943767 67 33156ft 517kts
07-May-18 11:47 59.130224 29.209089 67 33153ft 517kts
07-May-18 11:48 59.175988 29.475115 67 33150ft 518kts
07-May-18 11:49 59.221512 29.741759 67 33147ft 518kts
07-May-18 11:50 59.266329 30.009296 68 33146ft 519kts
07-May-18 11:51 59.311115 30.277421 61 33138ft 515kts
07-May-18 11:52 59.393948 30.500197 44 33147ft 505kts
07-May-18 11:53 59.485432 30.709252 45 33145ft 505kts
07-May-18 11:54 59.575934 30.921366 45 33144ft 506kts
07-May-18 11:55 59.666071 31.134910 45 33143ft 506kts
07-May-18 11:56 59.755595 31.350926 46 33143ft 508kts
07-May-18 11:57 59.844910 31.569479 46 33144ft 509kts
07-May-18 11:58 59.933832 31.789197 46 33145ft 511kts
07-May-18 11:59 60.022401 32.010453 46 33135ft 511kts
07-May-18 12:00 60.110732 32.233053 47 33131ft 511kts
07-May-18 12:01 60.198756 32.457295 47 33129ft 511kts
07-May-18 12:02 60.284456 32.686627 49 33126ft 513kts
07-May-18 12:03 60.367240 32.922108 50 33128ft 514kts
07-May-18 12:04 60.449386 33.158482 50 33126ft 515kts
07-May-18 12:05 60.531525 33.397583 50 33124ft 516kts
07-May-18 12:06 60.613567 33.638151 50 33123ft 517kts
07-May-18 12:07 60.695326 33.879449 51 33121ft 517kts
07-May-18 12:08 60.776932 34.121774 51 33120ft 518kts
07-May-18 12:09 60.857947 34.365335 51 33119ft 518kts
07-May-18 12:10 60.944945 34.599247 41 33119ft 511kts
07-May-18 12:11 61.044716 34.807112 40 33116ft 510kts
07-May-18 12:12 61.144663 35.015825 40 33116ft 511kts
07-May-18 12:13 61.244549 35.226542 40 33115ft 512kts
07-May-18 12:14 61.343676 35.439431 41 33115ft 512kts
07-May-18 12:15 61.442080 35.655155 41 33115ft 514kts
07-May-18 12:16 61.540420 35.872367 41 33115ft 514kts
07-May-18 12:17 61.638463 36.091540 42 33115ft 515kts
07-May-18 12:18 61.736364 36.312849 42 33116ft 515kts
07-May-18 12:19 61.833752 36.534997 42 33117ft 515kts
07-May-18 12:20 61.930532 36.757583 42 33117ft 514kts
07-May-18 12:21 62.027256 36.982253 42 33118ft 514kts
07-May-18 12:22 62.123663 37.208032 42 33120ft 514kts
07-May-18 12:23 62.219760 37.434982 42 33120ft 514kts
07-May-18 12:24 62.315207 37.662765 43 33122ft 514kts
07-May-18 12:25 62.410639 37.892423 43 33121ft 514kts
07-May-18 12:26 62.505796 38.123247 43 33119ft 514kts
07-May-18 12:27 62.600465 38.354943 43 33120ft 514kts
07-May-18 12:28 62.694791 38.588330 43 33122ft 513kts
07-May-18 12:29 62.788480 38.823100 44 33123ft 513kts
07-May-18 12:30 62.881425 39.060323 44 33125ft 513kts
07-May-18 12:31 62.973820 39.298100 44 33126ft 512kts
07-May-18 12:32 63.065632 39.537563 44 33128ft 513kts
07-May-18 12:33 63.157174 39.779129 44 33129ft 513kts
07-May-18 12:34 63.248349 40.022433 44 33131ft 513kts
07-May-18 12:35 63.339315 40.266370 45 33132ft 512kts
07-May-18 12:36 63.429535 40.511842 45 33133ft 511kts
07-May-18 12:37 63.519173 40.758528 45 33137ft 511kts
07-May-18 12:38 63.608550 41.005689 45 33141ft 510kts
07-May-18 12:39 63.697891 41.254758 45 33141ft 510kts
07-May-18 12:40 63.786540 41.504986 45 33141ft 511kts
07-May-18 12:41 63.874579 41.756557 46 33142ft 510kts
07-May-18 12:42 63.962405 42.010868 46 33141ft 510kts
07-May-18 12:43 64.049608 42.266381 46 33142ft 511kts
07-May-18 12:44 64.136413 42.523110 46 33142ft 510kts
07-May-18 12:45 64.222485 42.780204 46 33142ft 509kts
07-May-18 12:46 64.304161 43.047145 54 33142ft 514kts
07-May-18 12:47 64.372394 43.337800 56 33136ft 514kts
07-May-18 12:48 64.439274 43.630386 56 33135ft 514kts
07-May-18 12:49 64.505588 43.924233 56 33133ft 514kts
07-May-18 12:50 64.571304 44.219233 56 33131ft 513kts
07-May-18 12:51 64.636419 44.515242 57 33129ft 513kts
07-May-18 12:52 64.700555 44.812576 57 33112ft 512kts
07-May-18 12:53 64.764096 45.110542 57 33109ft 511kts
07-May-18 12:54 64.826820 45.407919 57 33087ft 505kts
07-May-18 12:55 64.888826 45.704139 57 33079ft 504kts
07-May-18 12:56 64.951905 45.998325 56 33076ft 502kts
07-May-18 12:57 65.015332 46.292050 56 33073ft 502kts
07-May-18 12:58 65.078734 46.587014 57 33072ft 503kts
07-May-18 12:59 65.141133 46.885364 57 33070ft 503kts
07-May-18 13:00 65.202683 47.184432 58 33067ft 503kts
07-May-18 13:01 65.264214 47.484236 58 33065ft 503kts
07-May-18 13:02 65.324890 47.785794 59 33063ft 503kts
07-May-18 13:03 65.384660 48.089356 59 33062ft 503kts
07-May-18 13:04 65.444417 48.393067 59 33060ft 503kts
07-May-18 13:05 65.502907 48.699452 60 33058ft 504kts
07-May-18 13:06 65.560876 49.007731 61 33057ft 504kts
07-May-18 13:07 65.618660 49.317151 61 33055ft 505kts
07-May-18 13:08 65.675341 49.628106 62 33054ft 504kts
07-May-18 13:09 65.731772 49.940623 63 33053ft 505kts
07-May-18 13:10 65.786855 50.254248 63 33052ft 506kts
07-May-18 13:11 65.841803 50.570176 63 33051ft 505kts
07-May-18 13:12 65.896566 50.886986 64 33041ft 506kts
07-May-18 13:13 65.950023 51.205557 65 33031ft 506kts
07-May-18 13:14 66.003229 51.525911 66 33034ft 506kts
07-May-18 13:14 66.046941 51.793993 66 33034ft 506kts
07-May-18 13:15 66.099041 52.115291 66 33034ft 506kts
07-May-18 13:16 66.150025 52.439481 67 33034ft 506kts
07-May-18 13:17 66.200178 52.765105 67 33034ft 506kts
07-May-18 13:18 66.249702 53.091417 67 33033ft 505kts
07-May-18 13:19 66.298917 53.418299 67 33028ft 505kts
07-May-18 13:20 66.347675 53.746026 68 33028ft 505kts
07-May-18 13:21 66.395123 54.075428 68 33027ft 504kts
07-May-18 13:22 66.441687 54.405644 69 33027ft 504kts
07-May-18 13:23 66.487492 54.736967 69 33027ft 503kts
07-May-18 13:24 66.532678 55.068897 69 33026ft 503kts
07-May-18 13:25 66.577209 55.401345 69 33026ft 502kts
07-May-18 13:26 66.620990 55.734457 69 33026ft 501kts
07-May-18 13:27 66.664394 56.068589 69 33025ft 501kts
07-May-18 13:28 66.707096 56.402448 69 33019ft 500kts
07-May-18 13:29 66.749018 56.737766 70 33018ft 500kts
07-May-18 13:30 66.789811 57.074449 70 33020ft 499kts
07-May-18 13:31 66.829777 57.412046 70 33020ft 499kts
07-May-18 13:32 66.868743 57.750423 70 33019ft 499kts
07-May-18 13:34 66.907124 58.088852 70 33019ft 498kts
07-May-18 13:35 66.944981 58.428514 71 33014ft 498kts
07-May-18 13:36 66.982696 58.768991 70 32981ft 498kts
07-May-18 13:37 67.021432 59.109230 70 32981ft 497kts
07-May-18 13:38 67.059361 59.449586 70 32984ft 497kts
07-May-18 13:39 67.096680 59.791392 70 32985ft 497kts
07-May-18 13:40 67.131893 60.118901 70 32986ft 496kts
07-May-18 13:41 67.168010 60.461676 70 32986ft 496kts
07-May-18 13:42 67.203596 60.805420 71 32993ft 496kts
07-May-18 13:43 67.237676 61.149875 71 32997ft 496kts
07-May-18 13:44 67.271045 61.496417 72 32988ft 496kts
07-May-18 13:45 67.303746 61.843760 72 32989ft 496kts
07-May-18 13:46 67.335855 62.190852 72 32989ft 495kts
07-May-18 13:47 67.367631 62.539123 72 32990ft 496kts
07-May-18 13:48 67.398504 62.888504 73 32991ft 495kts
07-May-18 13:49 67.428097 63.238574 73 32992ft 495kts
07-May-18 13:50 67.456781 63.588813 73 32992ft 494kts
07-May-18 13:51 67.484864 63.938644 72 32992ft 493kts
07-May-18 13:52 67.526396 64.277193 65 32994ft 488kts
07-May-18 13:53 67.571544 64.612677 66 32994ft 489kts
07-May-18 13:54 67.615503 64.950288 66 32995ft 489kts
07-May-18 13:55 67.658363 65.289179 66 32995ft 489kts
07-May-18 13:56 67.700585 65.629324 66 32983ft 488kts
07-May-18 13:57 67.742110 65.969075 66 32983ft 488kts
07-May-18 13:58 67.782917 66.310685 67 32983ft 487kts
07-May-18 13:59 67.823414 66.653791 67 32984ft 488kts
07-May-18 14:00 67.863448 66.996863 67 32982ft 490kts
07-May-18 14:01 67.902654 67.344607 68 32980ft 491kts
07-May-18 14:02 67.941492 67.692429 68 32980ft 491kts
07-May-18 14:03 67.978876 68.041951 69 32980ft 491kts
07-May-18 14:04 68.015892 68.392446 69 32981ft 491kts
07-May-18 14:05 68.052126 68.743913 70 32981ft 490kts
07-May-18 14:06 68.087640 69.096193 70 32981ft 490kts
07-May-18 14:07 68.122173 69.449860 71 33002ft 491kts
07-May-18 14:08 68.156427 69.804658 72 33002ft 492kts
07-May-18 14:09 68.189426 70.161778 72 33003ft 493kts
07-May-18 14:10 68.222217 70.519771 72 33003ft 492kts
07-May-18 14:11 68.253771 70.878309 73 33003ft 491kts
07-May-18 14:12 68.284859 71.236315 73 33003ft 491kts
07-May-18 14:13 68.314673 71.596199 74 33003ft 491kts
07-May-18 14:14 68.344430 71.957436 74 33004ft 493kts
07-May-18 14:15 68.372911 72.320724 75 33004ft 492kts
07-May-18 14:16 68.401038 72.683506 75 33004ft 491kts
07-May-18 14:17 68.427902 73.046796 76 33004ft 490kts
07-May-18 14:18 68.454186 73.410321 77 33004ft 491kts
07-May-18 14:19 68.462394 73.780913 92 32995ft 496kts
07-May-18 14:20 68.447131 74.154810 94 32993ft 496kts
07-May-18 14:21 68.430345 74.527333 94 33010ft 495kts
07-May-18 14:22 68.413857 74.898597 95 33019ft 494kts
07-May-18 14:23 68.396343 75.268207 95 33018ft 493kts
07-May-18 14:24 68.378472 75.637043 96 33018ft 493kts
07-May-18 14:25 68.359730 76.005350 96 33018ft 493kts
07-May-18 14:26 68.340008 76.372796 97 33018ft 493kts
07-May-18 14:27 68.319805 76.739172 97 32991ft 491kts
07-May-18 14:28 68.298505 77.103854 97 32989ft 491kts
07-May-18 14:29 68.276841 77.467688 98 32988ft 490kts
07-May-18 14:30 68.253896 77.830433 98 32987ft 490kts
07-May-18 14:31 68.230773 78.193114 98 32987ft 491kts
07-May-18 14:32 68.206259 78.554569 99 32987ft 490kts
07-May-18 14:33 68.181454 78.913752 99 32986ft 490kts
07-May-18 14:34 68.155399 79.272667 99 32986ft 489kts
07-May-18 14:35 68.128861 79.631090 100 32986ft 490kts
07-May-18 14:36 68.101260 79.988669 100 32985ft 490kts
07-May-18 14:37 68.073129 80.345898 100 32985ft 490kts
07-May-18 14:38 68.044201 80.701609 100 32985ft 489kts
07-May-18 14:39 68.014483 81.055426 101 32984ft 488kts
07-May-18 14:40 67.984114 81.408680 101 32984ft 489kts
07-May-18 14:41 67.952622 81.761015 102 32984ft 488kts
07-May-18 14:42 67.920760 82.111650 102 32984ft 488kts
07-May-18 14:43 67.887718 82.461435 102 32981ft 488kts
07-May-18 14:44 67.854437 82.810913 102 32985ft 489kts
07-May-18 14:45 67.819996 83.158175 103 32986ft 488kts
07-May-18 14:46 67.785348 83.504342 103 32985ft 487kts
07-May-18 14:47 67.749682 83.849207 103 32985ft 486kts
07-May-18 14:48 67.713383 84.192754 104 32982ft 486kts
07-May-18 14:49 67.676420 84.535566 104 32981ft 487kts
07-May-18 14:50 67.638372 84.877329 104 32981ft 487kts
07-May-18 14:51 67.600105 85.217836 104 32980ft 486kts
07-May-18 14:52 67.560937 85.556108 105 32980ft 486kts
07-May-18 14:53 67.521087 85.893606 105 32980ft 485kts
07-May-18 14:54 67.480675 86.229586 105 32990ft 485kts
07-May-18 14:55 67.439290 86.564376 106 32993ft 485kts
07-May-18 14:56 67.403063 86.902573 103 32967ft 485kts
07-May-18 14:57 67.368295 87.241507 103 32961ft 485kts
07-May-18 14:58 67.332823 87.578857 103 32961ft 484kts
07-May-18 14:59 67.296637 87.914006 104 32961ft 484kts
07-May-18 15:00 67.259348 88.249467 104 32961ft 484kts
07-May-18 15:01 67.221667 88.583880 104 32960ft 485kts
07-May-18 15:02 67.183261 88.917049 105 32960ft 486kts
07-May-18 15:03 67.143573 89.250038 105 32960ft 486kts
07-May-18 15:04 67.102550 89.581061 106 32963ft 486kts
07-May-18 15:05 67.061128 89.911447 106 32963ft 486kts
07-May-18 15:06 67.019110 90.240118 106 32963ft 487kts
07-May-18 15:07 66.976063 90.569476 107 32963ft 487kts
07-May-18 15:08 66.932464 90.896030 107 32963ft 487kts
07-May-18 15:09 66.888115 91.223446 108 32962ft 488kts
07-May-18 15:10 66.843074 91.549453 108 32962ft 488kts
07-May-18 15:11 66.797122 91.873834 108 32962ft 489kts
07-May-18 15:12 66.750803 92.197945 109 32962ft 490kts
07-May-18 15:13 66.703581 92.520774 109 32985ft 489kts
07-May-18 15:14 66.655715 92.842546 109 33044ft 489kts
07-May-18 15:15 66.606990 93.163056 110 33061ft 489kts
07-May-18 15:16 66.557872 93.482715 110 33062ft 490kts
07-May-18 15:17 66.507993 93.801402 111 33062ft 490kts
07-May-18 15:18 66.457363 94.119292 111 33058ft 491kts
07-May-18 15:19 66.405916 94.435714 111 33058ft 491kts
07-May-18 15:20 66.354035 94.750856 112 33059ft 491kts
07-May-18 15:21 66.301583 95.064600 112 33059ft 491kts
07-May-18 15:22 66.248384 95.377075 113 33060ft 492kts
07-May-18 15:23 66.194634 95.687807 113 33060ft 492kts
07-May-18 15:24 66.140064 95.999182 113 33060ft 493kts
07-May-18 15:25 66.084937 96.309036 114 33061ft 492kts
07-May-18 15:26 66.029269 96.616504 114 33062ft 493kts
07-May-18 15:27 65.972907 96.923550 114 33062ft 495kts
07-May-18 15:27 65.924966 97.179799 115 33063ft 495kts
07-May-18 15:28 65.867250 97.485576 115 33071ft 494kts
07-May-18 15:29 65.809126 97.789564 115 33072ft 494kts
07-May-18 15:30 65.749937 98.092465 116 33072ft 494kts
07-May-18 15:31 65.690462 98.393620 116 33073ft 495kts
07-May-18 15:32 65.630350 98.693616 117 33074ft 496kts
07-May-18 15:33 65.569420 98.993371 117 33075ft 497kts
07-May-18 15:34 65.507658 99.291927 117 33075ft 497kts
07-May-18 15:36 65.435015 99.638404 118 33076ft 497kts
07-May-18 15:36 65.382932 99.884498 118 33077ft 497kts
07-May-18 15:37 65.319448 100.178715 118 33078ft 497kts
07-May-18 15:38 65.255332 100.472218 119 33079ft 498kts
07-May-18 15:39 65.190622 100.764397 119 33080ft 498kts
07-May-18 15:40 65.125644 101.054907 120 33080ft 499kts
07-May-18 15:41 65.059597 101.345100 120 33081ft 499kts
07-May-18 15:42 64.993026 101.633709 121 33082ft 499kts
07-May-18 15:43 64.926075 101.921525 121 33154ft 500kts
07-May-18 15:44 64.858467 102.208161 121 33164ft 501kts
07-May-18 15:45 64.790129 102.492074 122 33164ft 500kts
07-May-18 15:47 64.721275 102.775989 122 33165ft 500kts
07-May-18 15:48 64.651882 103.058382 122 33166ft 501kts
07-May-18 15:49 64.581825 103.339384 123 33140ft 501kts
07-May-18 15:50 64.511495 103.618345 123 33140ft 502kts
07-May-18 15:51 64.440293 103.896920 124 33141ft 502kts
07-May-18 15:52 64.366886 104.171814 125 33141ft 502kts
07-May-18 15:53 64.293098 104.445446 125 33127ft 502kts
07-May-18 15:54 64.218683 104.716456 125 33106ft 501kts
07-May-18 15:55 64.144197 104.986403 126 33106ft 500kts
07-May-18 15:56 64.069238 105.254120 127 33106ft 499kts
07-May-18 15:57 63.993845 105.520298 127 33100ft 499kts
07-May-18 15:58 63.917859 105.785953 127 33100ft 499kts
07-May-18 15:59 63.841438 106.047910 128 33100ft 499kts
07-May-18 16:00 63.764504 106.309939 128 33100ft 500kts
07-May-18 16:01 63.687156 106.570246 129 33100ft 499kts
07-May-18 16:02 63.609295 106.829456 129 33099ft 499kts
07-May-18 16:03 63.530942 107.086892 130 33099ft 499kts
07-May-18 16:04 63.452694 107.342028 131 33099ft 498kts
07-May-18 16:05 63.373575 107.595778 131 33074ft 498kts
07-May-18 16:06 63.294159 107.848980 131 33071ft 497kts
07-May-18 16:07 63.214395 108.099666 132 33070ft 497kts
07-May-18 16:08 63.134064 108.349388 132 33069ft 502kts
07-May-18 16:09 63.052347 108.600946 132 33069ft 504kts
07-May-18 16:10 62.970498 108.850429 133 33068ft 504kts
07-May-18 16:11 62.887884 109.099557 133 33067ft 503kts
07-May-18 16:12 62.804854 109.346823 133 33066ft 503kts
07-May-18 16:13 62.721606 109.592011 134 33059ft 502kts
07-May-18 16:14 62.638366 109.835171 135 33052ft 503kts
07-May-18 16:15 62.553361 110.080535 135 33029ft 518kts
07-May-18 16:16 62.465720 110.329844 135 32976ft 509kts
07-May-18 16:17 62.383474 110.563571 136 33035ft 474kts
07-May-18 16:18 62.301648 110.791489 137 33046ft 494kts
07-May-18 16:19 62.216437 111.026033 137 33049ft 498kts
07-May-18 16:20 62.131027 111.259838 138 32984ft 497kts
07-May-18 16:21 62.045615 111.491491 138 32981ft 496kts
07-May-18 16:22 61.959921 111.721016 139 32980ft 497kts
07-May-18 16:23 61.873620 111.949895 139 32984ft 495kts
07-May-18 16:24 61.786824 112.177054 139 32978ft 499kts
07-May-18 16:25 61.701020 112.400875 140 32979ft 489kts
07-May-18 16:26 61.614199 112.624222 140 32975ft 494kts
07-May-18 16:27 61.527191 112.847246 140 32978ft 494kts
07-May-18 16:28 61.439104 113.069358 141 32959ft 497kts
07-May-18 16:29 61.351312 113.290158 140 32963ft 492kts
07-May-18 16:30 61.264142 113.506680 141 32982ft 489kts
07-May-18 16:31 61.176172 113.723218 141 32987ft 493kts
07-May-18 16:32 61.087252 113.938948 142 32987ft 492kts
07-May-18 16:33 60.997981 114.152817 142 32987ft 492kts
07-May-18 16:34 60.908235 114.365968 142 32987ft 494kts
07-May-18 16:35 60.818115 114.578941 142 32987ft 494kts
07-May-18 16:36 60.728175 114.790790 142 32987ft 493kts
07-May-18 16:37 60.637203 114.999852 142 32987ft 492kts
07-May-18 16:38 60.545820 115.206946 142 32987ft 491kts
07-May-18 16:39 60.454346 115.413183 142 32987ft 491kts
07-May-18 16:40 60.362637 115.617191 143 32987ft 490kts
07-May-18 16:41 60.270441 115.819863 142 32987ft 490kts
07-May-18 16:42 60.178378 116.021758 143 32988ft 489kts
07-May-18 16:43 60.085850 116.221766 143 32988ft 489kts
07-May-18 16:44 59.993070 116.420600 143 32988ft 489kts
07-May-18 16:45 59.900280 116.619773 142 32988ft 490kts
07-May-18 16:46 59.806880 116.818535 142 32979ft 492kts
07-May-18 16:47 59.712960 117.016852 142 32979ft 493kts
07-May-18 16:48 59.618678 117.213620 142 32980ft 494kts
07-May-18 16:49 59.523722 117.409639 142 32980ft 494kts
07-May-18 16:50 59.428395 117.603926 142 32982ft 493kts
07-May-18 16:51 59.332722 117.797015 142 32984ft 493kts
07-May-18 16:52 59.236669 117.989568 142 32984ft 493kts
07-May-18 16:53 59.140826 118.181449 141 32985ft 494kts
07-May-18 16:54 59.044793 118.371693 142 32986ft 493kts
07-May-18 16:55 58.948379 118.560629 141 32987ft 493kts
07-May-18 16:56 58.851632 118.748320 142 32987ft 493kts
07-May-18 16:57 58.754360 118.935407 141 32991ft 493kts
07-May-18 16:58 58.657035 119.120906 142 32991ft 493kts
07-May-18 16:59 58.559315 119.305673 141 32993ft 493kts
07-May-18 17:00 58.461378 119.489699 141 32994ft 493kts
07-May-18 17:01 58.363539 119.673275 141 32995ft 492kts
07-May-18 17:02 58.265844 119.854834 141 32996ft 492kts
07-May-18 17:03 58.167615 120.035431 141 32997ft 491kts
07-May-18 17:04 58.069075 120.214724 141 32999ft 491kts
07-May-18 17:05 57.970233 120.392925 141 33000ft 491kts
07-May-18 17:06 57.871264 120.570685 141 33002ft 492kts
07-May-18 17:07 57.772204 120.747698 141 33023ft 493kts
07-May-18 17:08 57.672745 120.924027 141 33029ft 494kts
07-May-18 17:09 57.572818 121.099679 141 33030ft 493kts
07-May-18 17:10 57.472546 121.274110 141 33032ft 493kts
07-May-18 17:11 57.371591 121.448055 141 33033ft 494kts
07-May-18 17:12 57.270876 121.620202 141 33035ft 494kts
07-May-18 17:13 57.169729 121.792568 141 33036ft 494kts
07-May-18 17:14 57.068592 121.963738 141 33038ft 493kts
07-May-18 17:15 56.967070 122.134533 140 33040ft 495kts
07-May-18 17:16 56.865321 122.304232 140 33042ft 495kts
07-May-18 17:17 56.763144 122.472904 140 33044ft 495kts
07-May-18 17:18 56.660796 122.640240 140 33031ft 494kts
07-May-18 17:19 56.558037 122.806832 140 33031ft 495kts
07-May-18 17:20 56.455380 122.972523 140 33034ft 496kts
07-May-18 17:21 56.352058 123.138684 140 33037ft 496kts
07-May-18 17:22 56.248822 123.303888 140 33040ft 496kts
07-May-18 17:23 56.145356 123.468439 139 33044ft 497kts
07-May-18 17:24 56.041690 123.632037 139 33047ft 497kts
07-May-18 17:25 55.937637 123.794576 139 33051ft 497kts
07-May-18 17:26 55.833378 123.955813 140 33055ft 496kts
07-May-18 17:27 55.728645 124.116258 139 33059ft 497kts
07-May-18 17:28 55.623873 124.275911 139 33063ft 497kts
07-May-18 17:29 55.518959 124.434829 139 33067ft 496kts
07-May-18 17:30 55.413677 124.592752 139 33072ft 497kts
07-May-18 17:31 55.307990 124.749465 139 33077ft 497kts
07-May-18 17:32 55.202985 124.906761 138 33081ft 496kts
07-May-18 17:33 55.098286 125.064106 138 33086ft 496kts
07-May-18 17:34 54.993426 125.221478 138 33091ft 496kts
07-May-18 17:35 54.888881 125.378120 138 33145ft 496kts
07-May-18 17:36 54.784492 125.533647 138 33149ft 496kts
07-May-18 17:37 54.679598 125.688387 138 33153ft 495kts
07-May-18 17:38 54.574724 125.842225 137 33157ft 495kts
07-May-18 17:39 54.469595 125.995228 137 33161ft 494kts
07-May-18 17:40 54.364349 126.146955 138 33164ft 494kts
07-May-18 17:41 54.258963 126.297761 138 33177ft 494kts
07-May-18 17:42 54.153008 126.447459 138 33182ft 493kts
07-May-18 17:43 54.047060 126.596202 138 33181ft 494kts
07-May-18 17:44 53.941221 126.743965 138 33183ft 491kts
07-May-18 17:45 53.835729 126.890172 138 33186ft 489kts
07-May-18 17:45 53.747826 127.011340 138 33189ft 488kts
07-May-18 17:46 53.645068 127.160827 135 33192ft 486kts
07-May-18 17:47 53.545832 127.315289 135 33194ft 486kts
07-May-18 17:48 53.446235 127.468500 135 33190ft 485kts
07-May-18 17:49 53.346763 127.620948 135 33192ft 484kts
07-May-18 17:50 53.247438 127.772814 135 33194ft 484kts
07-May-18 17:51 53.148065 127.923799 136 33197ft 483kts
07-May-18 17:52 53.048368 128.073335 136 33198ft 478kts
07-May-18 17:53 52.949529 128.220524 136 33198ft 477kts
07-May-18 17:54 52.850742 128.366747 136 33188ft 475kts
07-May-18 17:55 52.752089 128.511912 136 33191ft 474kts
07-May-18 17:56 52.653481 128.656076 136 33193ft 473kts
07-May-18 17:57 52.554884 128.799304 136 33195ft 472kts
07-May-18 17:58 52.456404 128.941424 136 33197ft 471kts
07-May-18 17:59 52.358093 129.082637 136 33199ft 469kts
07-May-18 18:00 52.260084 129.222601 136 33200ft 467kts
07-May-18 18:02 52.162031 129.361941 136 33201ft 465kts
07-May-18 18:03 52.064601 129.499565 136 33202ft 462kts
07-May-18 18:04 51.967397 129.635968 135 33203ft 460kts
07-May-18 18:05 51.870471 129.770340 136 33205ft 460kts
07-May-18 18:06 51.773189 129.904660 136 33208ft 460kts
07-May-18 18:07 51.675783 130.038751 136 33208ft 459kts
07-May-18 18:08 51.578511 130.171954 136 33208ft 460kts
07-May-18 18:09 51.480920 130.304645 136 33208ft 460kts
07-May-18 18:10 51.383045 130.436514 136 33207ft 459kts
07-May-18 18:11 51.284940 130.567581 135 33207ft 459kts
07-May-18 18:12 51.187163 130.698226 135 33206ft 458kts
07-May-18 18:13 51.089356 130.828239 135 33193ft 458kts
07-May-18 18:14 50.991562 130.957774 135 33184ft 457kts
07-May-18 18:15 50.893603 131.086433 135 33184ft 457kts
07-May-18 18:16 50.795542 131.214467 135 33184ft 456kts
07-May-18 18:17 50.697215 131.342176 135 33184ft 456kts
07-May-18 18:18 50.599377 131.468807 135 33184ft 455kts
07-May-18 18:19 50.501587 131.594665 135 33184ft 454kts
07-May-18 18:20 50.403833 131.719729 135 33195ft 453kts
07-May-18 18:21 50.306139 131.843666 135 33195ft 452kts
07-May-18 18:22 50.208188 131.967010 135 33196ft 451kts
07-May-18 18:23 50.110340 132.089442 135 33197ft 451kts
07-May-18 18:24 50.014601 132.214840 130 33197ft 447kts
07-May-18 18:25 49.927281 132.352080 129 33197ft 447kts
07-May-18 18:26 49.839835 132.489832 129 33197ft 449kts
07-May-18 18:27 49.751868 132.627710 129 33198ft 451kts
07-May-18 18:28 49.663747 132.765959 129 33198ft 453kts
07-May-18 18:29 49.574929 132.904321 130 33198ft 455kts
07-May-18 18:30 49.485523 133.042095 130 33198ft 455kts
07-May-18 18:31 49.395417 133.179850 130 33199ft 456kts
07-May-18 18:32 49.305156 133.316747 130 33199ft 456kts
07-May-18 18:33 49.216103 133.454988 123 33198ft 452kts
07-May-18 18:34 49.150522 133.617791 116 33200ft 450kts
07-May-18 18:35 49.087621 133.783410 116 33200ft 451kts
07-May-18 18:36 49.023795 133.948882 117 33200ft 453kts
07-May-18 18:37 48.958834 134.113771 117 33200ft 455kts
07-May-18 18:38 48.894269 134.279367 116 33200ft 456kts
07-May-18 18:39 48.832291 134.447674 116 33201ft 457kts
07-May-18 18:40 48.769539 134.615746 116 33200ft 458kts
07-May-18 18:41 48.706470 134.783195 117 33201ft 459kts
07-May-18 18:42 48.643014 134.951049 117 33201ft 459kts
07-May-18 18:43 48.579519 135.118526 117 33186ft 463kts
07-May-18 18:44 48.472396 135.224737 161 33195ft 482kts
07-May-18 18:45 48.339072 135.261529 166 33189ft 489kts
07-May-18 18:46 48.204043 135.294222 166 33193ft 492kts
07-May-18 18:47 48.070414 135.326482 166 33177ft 480kts
07-May-18 18:48 47.936408 135.358653 167 33187ft 497kts
07-May-18 18:49 47.800237 135.391086 168 33187ft 498kts
07-May-18 18:50 47.662298 135.423711 168 33185ft 499kts
07-May-18 18:51 47.526927 135.455582 168 33191ft 494kts
07-May-18 18:52 47.391944 135.487057 168 33187ft 491kts
07-May-18 18:53 47.253851 135.519890 168 33191ft 507kts
07-May-18 18:54 47.117143 135.552136 169 33196ft 496kts
07-May-18 18:55 46.980221 135.583564 169 33203ft 498kts
07-May-18 18:56 46.843350 135.615728 169 33203ft 499kts
07-May-18 18:57 46.706253 135.649618 169 33204ft 499kts
07-May-18 18:58 46.569272 135.684607 169 33204ft 500kts
07-May-18 18:59 46.432260 135.718638 170 33204ft 500kts
07-May-18 19:00 46.295040 135.751509 171 33204ft 501kts
07-May-18 19:01 46.157370 135.783175 171 33204ft 501kts
07-May-18 19:02 46.019762 135.815714 171 33205ft 501kts
07-May-18 19:03 45.882212 135.848400 171 33205ft 501kts
07-May-18 19:04 45.744509 135.880734 171 33205ft 501kts
07-May-18 19:05 45.606741 135.913007 172 33205ft 501kts
07-May-18 19:06 45.469056 135.945426 172 33192ft 501kts
07-May-18 19:07 45.331490 135.978064 172 33188ft 501kts
07-May-18 19:08 45.193564 136.009683 173 33187ft 501kts
07-May-18 19:09 45.056089 136.041554 174 33186ft 501kts
07-May-18 19:10 44.918726 136.073286 174 33186ft 499kts
07-May-18 19:11 44.781463 136.104435 175 33185ft 500kts
07-May-18 19:12 44.644093 136.136003 175 33184ft 500kts
07-May-18 19:13 44.506688 136.166648 176 33191ft 500kts
07-May-18 19:14 44.369260 136.197494 176 33192ft 500kts
07-May-18 19:15 44.231870 136.228992 176 33192ft 500kts
07-May-18 19:16 44.094556 136.260421 176 33191ft 500kts
07-May-18 19:17 43.957213 136.291277 177 33190ft 499kts
07-May-18 19:18 43.820023 136.321309 177 33189ft 499kts
07-May-18 19:19 43.682918 136.351354 177 33188ft 499kts
07-May-18 19:20 43.545873 136.381576 177 33187ft 499kts
07-May-18 19:21 43.408872 136.412059 178 33186ft 498kts
07-May-18 19:22 43.271906 136.441313 178 33184ft 497kts
07-May-18 19:23 43.134977 136.470867 179 33167ft 497kts
07-May-18 19:24 42.998772 136.500537 179 33159ft 495kts
07-May-18 19:25 42.861194 136.529391 179 33154ft 507kts
07-May-18 19:26 42.722024 136.558832 180 33138ft 505kts
07-May-18 19:27 42.583056 136.588759 180 33134ft 506kts
07-May-18 19:28 42.444078 136.618407 180 33117ft 505kts
07-May-18 19:29 42.305216 136.647325 180 33103ft 504kts
07-May-18 19:30 42.166342 136.676031 181 33100ft 504kts
07-May-18 19:31 42.027684 136.704598 181 33098ft 504kts
07-May-18 19:32 41.889580 136.733225 182 33093ft 500kts
07-May-18 19:33 41.751898 136.761619 182 33092ft 500kts
07-May-18 19:34 41.614742 136.796877 175 33090ft 511kts
07-May-18 19:35 41.477434 136.852243 174 33085ft 514kts
07-May-18 19:36 41.341077 136.908362 174 33082ft 514kts
07-May-18 19:37 41.204427 136.964418 175 33077ft 513kts
07-May-18 19:38 41.068195 137.019154 176 33068ft 509kts
07-May-18 19:39 40.932949 137.074057 176 33065ft 508kts
07-May-18 19:40 40.797800 137.127916 177 33062ft 507kts
07-May-18 19:41 40.662939 137.181182 177 33034ft 500kts
07-May-18 19:42 40.530615 137.234195 178 33031ft 493kts
07-May-18 19:43 40.399224 137.285716 178 33030ft 491kts
07-May-18 19:44 40.268391 137.337027 178 33009ft 490kts
07-May-18 19:45 40.138252 137.388529 178 33005ft 490kts
07-May-18 19:46 40.007311 137.440298 179 33003ft 490kts
07-May-18 19:47 39.876923 137.492325 178 33000ft 490kts
07-May-18 19:48 39.746564 137.544652 178 32992ft 490kts
07-May-18 19:49 39.616217 137.596774 179 32984ft 490kts
07-May-18 19:50 39.485766 137.648523 179 32975ft 490kts
07-May-18 19:51 39.355048 137.699807 179 32973ft 490kts
07-May-18 19:52 39.226222 137.766182 161 32973ft 529kts
07-May-18 19:53 39.107728 137.885769 153 32968ft 547kts
07-May-18 19:54 38.991844 138.012063 153 32965ft 548kts
07-May-18 19:55 38.875201 138.138753 153 32962ft 549kts
07-May-18 19:56 38.758106 138.264814 153 32955ft 549kts
07-May-18 19:57 38.641036 138.390669 153 32952ft 549kts
07-May-18 19:58 38.523992 138.516187 153 32950ft 549kts
07-May-18 19:58 38.426541 138.619672 153 32947ft 548kts
07-May-18 20:00 38.288909 138.764391 153 32943ft 550kts
07-May-18 20:00 38.190738 138.867270 153 32940ft 550kts
07-May-18 20:01 38.072796 138.991491 152 32937ft 551kts
07-May-18 20:02 37.956782 139.120096 145 32935ft 563kts
07-May-18 20:03 37.854343 139.273491 139 32936ft 573kts
07-May-18 20:04 37.754341 139.430506 139 32945ft 574kts
07-May-18 20:05 37.653531 139.587311 139 32966ft 575kts
07-May-18 20:06 37.552528 139.744008 139 32988ft 575kts
07-May-18 20:07 37.451564 139.900141 139 33002ft 575kts
07-May-18 20:08 37.350549 140.055407 139 33008ft 573kts
07-May-18 20:09 37.249177 140.209582 140 33012ft 571kts
07-May-18 20:10 37.147702 140.362785 139 33015ft 570kts
07-May-18 20:11 37.046792 140.515964 139 33015ft 570kts
07-May-18 20:12 36.948025 140.665602 139 31750ft 532kts
07-May-18 20:13 36.837770 140.734056 199 29901ft 388kts
07-May-18 20:14 36.741821 140.700495 209 28113ft 342kts
07-May-18 20:15 36.653563 140.665272 208 26301ft 324kts
07-May-18 20:17 36.570448 140.633143 208 24845ft 301kts
07-May-18 20:18 36.492323 140.603375 207 23433ft 287kts
07-May-18 20:19 36.416610 140.574587 207 22033ft 281kts
07-May-18 20:20 36.342500 140.546405 206 20635ft 276kts
07-May-18 20:21 36.264798 140.519519 203 19272ft 319kts
07-May-18 20:22 36.178364 140.493179 192 17863ft 324kts
07-May-18 20:23 36.100858 140.559997 130 16636ft 375kts
07-May-18 20:24 36.037132 140.658128 139 15270ft 359kts
07-May-18 20:25 35.960973 140.730721 156 13758ft 338kts
07-May-18 20:26 35.878786 140.773841 172 12244ft 305kts
07-May-18 20:27 35.800447 140.785265 190 10715ft 271kts
07-May-18 20:28 35.725645 140.784193 182 9287ft 266kts
07-May-18 20:29 35.654722 140.759608 200 7898ft 268kts
07-May-18 20:30 35.589627 140.717558 216 6495ft 263kts
07-May-18 20:31 35.532902 140.661499 229 5090ft 260kts
07-May-18 20:32 35.515130 140.582961 288 4104ft 243kts
07-May-18 20:33 35.555248 140.526312 330 4016ft 213kts
07-May-18 20:34 35.603705 140.491320 334 3221ft 198kts
07-May-18 20:35 35.646788 140.460350 334 2237ft 151kts
07-May-18 20:36 35.681550 140.435369 333 1675ft 157kts
07-May-18 20:37 35.717414 140.409381 333 858ft 155kts
07-May-18 20:38 35.750677 140.385422 335 154ft 108kts
07-May-18 20:39 35.759410 140.380381 3 153ft 0kts
07-May-18 20:40 35.759627 140.380450 17 153ft 9kts
07-May-18 20:41 35.761818 140.384101 59 153ft 0kts
07-May-18 20:42 35.761818 140.384101 59 153ft 0kts
07-May-18 20:43 35.761818 140.384101 59 153ft 0kts
07-May-18 20:44 35.761818 140.384101 59 153ft 0kts
07-May-18 20:45 35.770523 140.378970 60 153ft 0kts
07-May-18 20:46 35.766071 140.382263 179 153ft 0kts
07-May-18 20:47 35.766071 140.382263 179 153ft 0kts

Navigation Log

Ident Type
Flight plan parsing failed, navigation log unavailable